Time;durP1;ratioP1;P1;durP2;ratioP2;P2;SDS_P1;SDS_P2;PMS_P1;PMS_P2;Temp;Humidity;BMP_temperature;BMP_pressure;BME280_temperature;BME280_humidity;BME280_pressure;Samples;Min_cycle;Max_cycle;Signal;HPM_P1;HPM_P2
2021/12/27 00:01:04;;;;;;;23.88;10.35;;;;;;;;;;4940670;28;20457;-84
2021/12/27 00:03:30;;;;;;;24.15;10.25;;;;;;;;;;4950262;28;20042;-83
2021/12/27 00:05:56;;;;;;;22.95;10.35;;;;;;;;;;4962230;28;20320;-83
2021/12/27 00:08:23;;;;;;;22.27;7.80;;;;;;;;;;4948591;28;20416;-83
2021/12/27 00:10:50;;;;;;;26.13;9.75;;;;;;;;;;4945756;28;20082;-83
2021/12/27 00:13:16;;;;;;;19.95;9.05;;;;;;;;;;4944749;28;20042;-84
2021/12/27 00:15:43;;;;;;;19.55;9.15;;;;;;;;;;4942976;28;20027;-84
2021/12/27 00:18:10;;;;;;;29.77;11.68;;;;;;;;;;4946999;28;20121;-83
2021/12/27 00:20:36;;;;;;;14.40;6.72;;;;;;;;;;4946298;28;20041;-84
2021/12/27 00:23:02;;;;;;;26.58;10.02;;;;;;;;;;4944619;28;20526;-84
2021/12/27 00:25:29;;;;;;;17.02;8.32;;;;;;;;;;4944567;28;20479;-83
2021/12/27 00:28:01;;;;;;;20.58;8.15;;;;;;;;;;4943792;28;20475;-83
2021/12/27 00:30:28;;;;;;;20.02;6.63;;;;;;;;;;4944397;28;20117;-83
2021/12/27 00:32:53;;;;;;;18.70;8.82;;;;;;;;;;4945135;28;20082;-83
2021/12/27 00:35:22;;;;;;;20.45;8.65;;;;;;;;;;4963300;28;20034;-83
2021/12/27 00:37:48;;;;;;;21.08;9.18;;;;;;;;;;4966268;28;20101;-83
2021/12/27 00:40:14;;;;;;;19.92;9.18;;;;;;;;;;4965025;28;20457;-83
2021/12/27 00:42:41;;;;;;;23.50;9.88;;;;;;;;;;4966597;28;20085;-83
2021/12/27 00:45:07;;;;;;;25.02;10.43;;;;;;;;;;4962342;28;20502;-83
2021/12/27 00:47:33;;;;;;;25.27;11.02;;;;;;;;;;4981257;28;20546;-83
2021/12/27 00:49:59;;;;;;;17.75;8.82;;;;;;;;;;4977279;28;20533;-83
2021/12/27 00:52:26;;;;;;;18.83;9.43;;;;;;;;;;4968242;28;20030;-83
2021/12/27 00:54:52;;;;;;;18.92;8.98;;;;;;;;;;4978545;28;20022;-84
2021/12/27 00:57:18;;;;;;;19.92;9.38;;;;;;;;;;4964735;28;20498;-83
2021/12/27 00:59:44;;;;;;;28.13;10.20;;;;;;;;;;4966025;28;20034;-83
2021/12/27 01:02:16;;;;;;;29.33;9.98;;;;;;;;;;4962756;28;20444;-82
2021/12/27 01:04:42;;;;;;;24.35;9.80;;;;;;;;;;4977974;28;20034;-83
2021/12/27 01:07:09;;;;;;;16.95;7.78;;;;;;;;;;4955496;28;20478;-82
2021/12/27 01:17:36;;;;;;;20.30;8.48;;;;;;;;;;4975584;28;20113;-82
2021/12/27 01:20:04;;;;;;;21.23;9.07;;;;;;;;;;4959793;28;20478;-82
2021/12/27 01:22:30;;;;;;;25.00;9.07;;;;;;;;;;4960014;28;20043;-82
2021/12/27 01:24:56;;;;;;;21.30;10.00;;;;;;;;;;4959662;28;20043;-82
2021/12/27 01:27:22;;;;;;;21.42;9.93;;;;;;;;;;4962242;28;20041;-83
2021/12/27 01:29:48;;;;;;;25.77;10.55;;;;;;;;;;4957824;28;20041;-82
2021/12/27 01:32:14;;;;;;;24.13;9.70;;;;;;;;;;4958878;28;20023;-82
2021/12/27 01:34:47;;;;;;;17.65;8.38;;;;;;;;;;4964485;28;20053;-83
2021/12/27 01:37:19;;;;;;;16.33;7.97;;;;;;;;;;4966386;28;20023;-83
2021/12/27 01:39:46;;;;;;;18.98;8.20;;;;;;;;;;4958832;28;20030;-83
2021/12/27 01:42:12;;;;;;;21.60;8.02;;;;;;;;;;4965184;28;20050;-82
2021/12/27 01:44:39;;;;;;;19.88;9.13;;;;;;;;;;4962336;28;20027;-82
2021/12/27 01:47:06;;;;;;;22.23;8.05;;;;;;;;;;4964434;28;20394;-82
2021/12/27 01:49:33;;;;;;;18.05;8.80;;;;;;;;;;4960686;28;20019;-83
2021/12/27 01:51:59;;;;;;;15.85;6.93;;;;;;;;;;4961863;28;20514;-83
2021/12/27 01:54:25;;;;;;;25.30;10.23;;;;;;;;;;4961718;28;20052;-83
2021/12/27 01:56:52;;;;;;;18.17;8.52;;;;;;;;;;4961227;28;20483;-83
2021/12/27 01:59:18;;;;;;;23.17;11.20;;;;;;;;;;4975140;28;20518;-83
2021/12/27 02:01:45;;;;;;;25.45;9.60;;;;;;;;;;4963688;28;20040;-83
2021/12/27 02:04:11;;;;;;;18.55;8.98;;;;;;;;;;4965459;28;20391;-83
2021/12/27 02:06:37;;;;;;;20.27;9.15;;;;;;;;;;4965366;28;20513;-83
2021/12/27 02:09:04;;;;;;;20.67;8.63;;;;;;;;;;4960491;28;20034;-84
2021/12/27 02:11:34;;;;;;;18.95;7.45;;;;;;;;;;4966331;28;20026;-83
2021/12/27 02:14:04;;;;;;;25.75;8.98;;;;;;;;;;4961003;28;20026;-83
2021/12/27 02:16:31;;;;;;;18.70;8.73;;;;;;;;;;4983126;28;20034;-83
2021/12/27 02:18:57;;;;;;;23.05;8.25;;;;;;;;;;4963960;28;20038;-83
2021/12/27 02:21:25;;;;;;;27.27;10.30;;;;;;;;;;4964129;28;20033;-83
2021/12/27 02:23:54;;;;;;;15.32;7.10;;;;;;;;;;4962378;28;20034;-83
2021/12/27 02:26:20;;;;;;;22.55;8.60;;;;;;;;;;4958374;28;20639;-83
2021/12/27 02:28:46;;;;;;;25.80;10.30;;;;;;;;;;4964396;28;20121;-83
2021/12/27 02:31:13;;;;;;;30.60;12.48;;;;;;;;;;4973556;28;20030;-83
2021/12/27 02:33:41;;;;;;;16.60;8.15;;;;;;;;;;4959338;28;20574;-83
2021/12/27 02:36:08;;;;;;;30.15;10.55;;;;;;;;;;4946470;28;20053;-83
2021/12/27 02:38:36;;;;;;;23.55;9.38;;;;;;;;;;4962086;28;20027;-83
2021/12/27 02:41:02;;;;;;;30.05;11.57;;;;;;;;;;4940494;28;20086;-82
2021/12/27 02:43:30;;;;;;;24.52;10.63;;;;;;;;;;4955662;28;20116;-82
2021/12/27 02:46:00;;;;;;;18.70;9.73;;;;;;;;;;4959903;28;20014;-83
2021/12/27 02:48:34;;;;;;;26.00;11.48;;;;;;;;;;4944093;28;20034;-83
2021/12/27 02:51:00;;;;;;;24.98;11.75;;;;;;;;;;4940992;28;20411;-83
2021/12/27 02:53:28;;;;;;;26.33;11.55;;;;;;;;;;4953410;28;20475;-83
2021/12/27 02:55:55;;;;;;;25.17;11.10;;;;;;;;;;4945304;28;20114;-83
2021/12/27 02:58:21;;;;;;;24.55;11.60;;;;;;;;;;4925898;28;20463;-83
2021/12/27 03:01:02;;;;;;;24.05;11.00;;;;;;;;;;4950283;28;20046;-83
2021/12/27 03:03:28;;;;;;;22.95;9.52;;;;;;;;;;4946598;28;20073;-83
2021/12/27 03:05:54;;;;;;;23.52;10.45;;;;;;;;;;4948650;28;20042;-82
2021/12/27 03:08:21;;;;;;;24.83;10.68;;;;;;;;;;4947514;28;20934;-83
2021/12/27 03:10:48;;;;;;;31.30;12.57;;;;;;;;;;4946373;28;20110;-83
2021/12/27 03:13:25;;;;;;;19.08;9.32;;;;;;;;;;4947144;28;20069;-83
2021/12/27 03:15:52;;;;;;;22.63;9.80;;;;;;;;;;4949866;28;20034;-83
2021/12/27 03:18:18;;;;;;;20.75;8.65;;;;;;;;;;4947030;28;20035;-83
2021/12/27 03:20:44;;;;;;;27.70;11.70;;;;;;;;;;4946184;28;20042;-82
2021/12/27 03:23:10;;;;;;;19.52;9.15;;;;;;;;;;4952456;28;20130;-83
2021/12/27 03:25:36;;;;;;;20.67;10.60;;;;;;;;;;4943605;28;20460;-82
2021/12/27 03:28:03;;;;;;;29.67;12.13;;;;;;;;;;4947796;28;20394;-83
2021/12/27 03:30:29;;;;;;;32.33;11.07;;;;;;;;;;4945752;28;20109;-83
2021/12/27 03:32:55;;;;;;;27.35;11.90;;;;;;;;;;4942842;28;20043;-83
2021/12/27 03:35:28;;;;;;;23.60;10.98;;;;;;;;;;4947321;28;20112;-83
2021/12/27 03:37:56;;;;;;;28.00;11.07;;;;;;;;;;4949384;28;20040;-82
2021/12/27 03:40:22;;;;;;;27.25;12.50;;;;;;;;;;4949046;28;20041;-82
2021/12/27 03:42:50;;;;;;;30.05;10.88;;;;;;;;;;4948233;28;20509;-83
2021/12/27 03:45:20;;;;;;;27.73;11.15;;;;;;;;;;4945748;28;20026;-83
2021/12/27 03:47:47;;;;;;;25.10;10.45;;;;;;;;;;4958655;28;20039;-83
2021/12/27 03:50:13;;;;;;;30.05;11.65;;;;;;;;;;4946542;28;20035;-83
2021/12/27 03:52:39;;;;;;;19.40;9.40;;;;;;;;;;4944929;28;20031;-83
2021/12/27 03:55:06;;;;;;;30.20;11.80;;;;;;;;;;4943804;28;20038;-83
2021/12/27 03:57:34;;;;;;;27.65;11.75;;;;;;;;;;4943541;28;20516;-83
2021/12/27 04:02:45;;;;;;;26.25;10.80;;;;;;;;;;4962894;28;20058;-83
2021/12/27 04:05:11;;;;;;;20.17;8.65;;;;;;;;;;4941920;28;20061;-83
2021/12/27 04:07:38;;;;;;;27.55;12.75;;;;;;;;;;4957520;28;20031;-83
2021/12/27 04:10:09;;;;;;;29.30;12.55;;;;;;;;;;4946997;28;20026;-83
2021/12/27 04:12:35;;;;;;;32.40;13.32;;;;;;;;;;4944697;28;20502;-83
2021/12/27 04:15:01;;;;;;;31.27;13.00;;;;;;;;;;4945634;28;20526;-83
2021/12/27 04:17:28;;;;;;;26.63;11.93;;;;;;;;;;4956292;28;20122;-84
2021/12/27 04:19:54;;;;;;;33.60;13.98;;;;;;;;;;4946723;28;20090;-83
2021/12/27 04:22:20;;;;;;;24.63;10.73;;;;;;;;;;4924672;28;20477;-83
2021/12/27 04:24:46;;;;;;;21.95;9.50;;;;;;;;;;4959191;28;20035;-83
2021/12/27 04:27:12;;;;;;;28.15;12.73;;;;;;;;;;4959960;28;20070;-83
2021/12/27 04:29:38;;;;;;;31.02;13.82;;;;;;;;;;4957075;28;20115;-83
2021/12/27 04:32:05;;;;;;;30.08;12.27;;;;;;;;;;4945085;28;20031;-83
2021/12/27 04:34:37;;;;;;;33.28;12.57;;;;;;;;;;4946818;28;20046;-83
2021/12/27 04:37:10;;;;;;;24.95;10.00;;;;;;;;;;4963544;28;20046;-83
2021/12/27 04:39:36;;;;;;;29.75;12.20;;;;;;;;;;4946919;28;20082;-83
2021/12/27 04:42:02;;;;;;;27.90;11.52;;;;;;;;;;4953236;28;20122;-84
2021/12/27 04:44:29;;;;;;;33.45;12.38;;;;;;;;;;4964130;28;20031;-84
2021/12/27 04:46:55;;;;;;;32.30;13.05;;;;;;;;;;4965227;28;20115;-83
2021/12/27 04:49:21;;;;;;;27.98;11.95;;;;;;;;;;4965577;28;20029;-84
2021/12/27 04:51:47;;;;;;;32.40;11.15;;;;;;;;;;4964203;28;20030;-83
2021/12/27 04:54:14;;;;;;;36.55;12.77;;;;;;;;;;4947043;28;20101;-83
2021/12/27 04:56:40;;;;;;;29.55;12.23;;;;;;;;;;4951323;28;20516;-84
2021/12/27 04:59:06;;;;;;;30.85;13.20;;;;;;;;;;4951871;28;20052;-84
2021/12/27 05:01:32;;;;;;;30.40;11.90;;;;;;;;;;4949762;28;20452;-83
2021/12/27 05:03:58;;;;;;;29.10;12.75;;;;;;;;;;4945713;28;20141;-83
2021/12/27 05:06:27;;;;;;;30.88;13.10;;;;;;;;;;4962854;28;20117;-83
2021/12/27 05:08:53;;;;;;;31.52;13.48;;;;;;;;;;4956539;28;20037;-84
2021/12/27 05:11:20;;;;;;;30.38;12.77;;;;;;;;;;4950333;28;20522;-84
2021/12/27 05:13:46;;;;;;;24.98;11.68;;;;;;;;;;4945041;28;20042;-83
2021/12/27 05:16:12;;;;;;;29.55;12.65;;;;;;;;;;4948654;28;20045;-84
2021/12/27 05:18:38;;;;;;;30.13;12.65;;;;;;;;;;4964244;28;20035;-83
2021/12/27 05:21:04;;;;;;;29.00;13.73;;;;;;;;;;4965490;28;20034;-83
2021/12/27 05:23:34;;;;;;;29.60;13.02;;;;;;;;;;4948400;28;20035;-84
2021/12/27 05:26:00;;;;;;;30.33;11.80;;;;;;;;;;4949617;28;20493;-84
2021/12/27 05:28:26;;;;;;;29.90;13.10;;;;;;;;;;4960637;28;20094;-84
2021/12/27 05:30:52;;;;;;;28.38;11.85;;;;;;;;;;4948762;28;20035;-84
2021/12/27 05:33:19;;;;;;;25.13;10.63;;;;;;;;;;4965351;28;20323;-84
2021/12/27 05:35:46;;;;;;;27.15;10.43;;;;;;;;;;4965697;28;20414;-80
2021/12/27 05:38:12;;;;;;;34.17;14.25;;;;;;;;;;4943917;28;20387;-80
2021/12/27 05:40:38;;;;;;;31.35;13.05;;;;;;;;;;4948045;28;20039;-80
2021/12/27 05:43:06;;;;;;;34.50;14.27;;;;;;;;;;4942648;28;20034;-80
2021/12/27 05:45:32;;;;;;;37.10;15.13;;;;;;;;;;4947317;28;20027;-80
2021/12/27 05:47:58;;;;;;;30.10;12.35;;;;;;;;;;4943818;28;20380;-80
2021/12/27 05:50:24;;;;;;;33.95;13.45;;;;;;;;;;4944965;28;20037;-81
2021/12/27 05:52:50;;;;;;;31.70;13.75;;;;;;;;;;4942491;28;20034;-80
2021/12/27 05:55:16;;;;;;;29.58;13.63;;;;;;;;;;4938189;28;20031;-80
2021/12/27 05:57:42;;;;;;;32.60;14.52;;;;;;;;;;4944686;28;20093;-80
2021/12/27 06:00:09;;;;;;;35.53;13.75;;;;;;;;;;4957599;28;20503;-80
2021/12/27 06:02:35;;;;;;;33.97;14.57;;;;;;;;;;4949286;28;20164;-80
2021/12/27 06:05:02;;;;;;;35.83;14.15;;;;;;;;;;4939437;28;20060;-80
2021/12/27 06:07:29;;;;;;;38.88;15.32;;;;;;;;;;4945762;28;20443;-80
2021/12/27 06:09:55;;;;;;;36.42;13.73;;;;;;;;;;4943391;28;20031;-81
2021/12/27 06:12:21;;;;;;;36.45;13.73;;;;;;;;;;4963581;28;20525;-80
2021/12/27 06:14:47;;;;;;;41.00;15.68;;;;;;;;;;4962008;28;20059;-80
2021/12/27 06:17:13;;;;;;;28.65;13.57;;;;;;;;;;4957769;28;20027;-80
2021/12/27 06:19:39;;;;;;;37.70;15.68;;;;;;;;;;4946825;28;20031;-80
2021/12/27 06:22:05;;;;;;;37.03;14.95;;;;;;;;;;4942202;28;20395;-81
2021/12/27 06:24:31;;;;;;;33.47;12.82;;;;;;;;;;4944828;28;20634;-80
2021/12/27 06:26:57;;;;;;;33.28;13.63;;;;;;;;;;4939295;28;20058;-80
2021/12/27 06:29:23;;;;;;;34.42;15.40;;;;;;;;;;4958791;28;20023;-80
2021/12/27 06:31:49;;;;;;;36.50;14.60;;;;;;;;;;4941102;28;20038;-80
2021/12/27 06:34:17;;;;;;;30.45;12.93;;;;;;;;;;4946717;28;20030;-80
2021/12/27 06:36:49;;;;;;;32.38;13.95;;;;;;;;;;4947787;28;20118;-80
2021/12/27 06:39:15;;;;;;;42.55;15.73;;;;;;;;;;4942621;28;20490;-80
2021/12/27 06:41:41;;;;;;;40.03;14.10;;;;;;;;;;4943906;28;20027;-80
2021/12/27 06:44:07;;;;;;;34.60;13.90;;;;;;;;;;4939766;28;20058;-80
2021/12/27 06:46:33;;;;;;;41.38;15.68;;;;;;;;;;4935096;28;20406;-80
2021/12/27 06:48:59;;;;;;;34.80;14.48;;;;;;;;;;4942943;28;20450;-80
2021/12/27 06:51:25;;;;;;;33.58;15.30;;;;;;;;;;4942231;28;20483;-80
2021/12/27 06:53:51;;;;;;;34.17;14.63;;;;;;;;;;4938630;28;20538;-80
2021/12/27 06:56:17;;;;;;;44.63;13.70;;;;;;;;;;4948621;28;20359;-80
2021/12/27 06:58:43;;;;;;;38.67;15.48;;;;;;;;;;4937790;28;20027;-80
2021/12/27 07:01:09;;;;;;;35.92;14.25;;;;;;;;;;4940714;28;20055;-80
2021/12/27 07:03:35;;;;;;;43.72;16.00;;;;;;;;;;4941657;28;20026;-80
2021/12/27 07:06:01;;;;;;;40.63;16.83;;;;;;;;;;4958740;28;20505;-80
2021/12/27 07:08:27;;;;;;;44.17;16.73;;;;;;;;;;4960161;28;20031;-81
2021/12/27 07:10:54;;;;;;;42.60;13.82;;;;;;;;;;4952025;28;20476;-80
2021/12/27 07:13:20;;;;;;;43.45;17.08;;;;;;;;;;4940877;28;20126;-81
2021/12/27 07:15:46;;;;;;;38.85;16.27;;;;;;;;;;4946073;28;20566;-80
2021/12/27 07:18:13;;;;;;;38.90;14.95;;;;;;;;;;4946710;28;20514;-80
2021/12/27 07:20:39;;;;;;;34.17;15.25;;;;;;;;;;4939741;28;20035;-80
2021/12/27 07:23:06;;;;;;;47.53;16.35;;;;;;;;;;4957816;28;20735;-80
2021/12/27 07:25:32;;;;;;;45.08;16.33;;;;;;;;;;4940819;28;20535;-81
2021/12/27 07:27:58;;;;;;;43.88;17.05;;;;;;;;;;4938337;28;20054;-81
2021/12/27 07:30:24;;;;;;;50.30;17.75;;;;;;;;;;4955143;28;20034;-80
2021/12/27 07:32:50;;;;;;;52.80;16.80;;;;;;;;;;4937902;28;20436;-80
2021/12/27 07:35:17;;;;;;;45.40;17.92;;;;;;;;;;4945865;28;20031;-80
2021/12/27 07:37:49;;;;;;;40.60;16.05;;;;;;;;;;4956088;28;20059;-80
2021/12/27 07:40:15;;;;;;;37.95;14.20;;;;;;;;;;4977357;28;20125;-81
2021/12/27 07:42:41;;;;;;;45.47;16.92;;;;;;;;;;4962194;28;20034;-80
2021/12/27 07:45:08;;;;;;;49.63;15.55;;;;;;;;;;4965488;28;20513;-80
2021/12/27 07:47:34;;;;;;;50.60;18.40;;;;;;;;;;4963449;28;20481;-80
2021/12/27 07:50:00;;;;;;;53.92;17.40;;;;;;;;;;4964111;28;20057;-80
2021/12/27 07:52:26;;;;;;;52.05;18.42;;;;;;;;;;4965442;28;20050;-80
2021/12/27 07:54:52;;;;;;;42.03;16.88;;;;;;;;;;4961058;28;20094;-80
2021/12/27 07:57:18;;;;;;;37.35;15.15;;;;;;;;;;4963019;28;20056;-79
2021/12/27 07:59:47;;;;;;;46.30;16.35;;;;;;;;;;4959304;28;20034;-81
2021/12/27 08:02:14;;;;;;;44.00;17.73;;;;;;;;;;4969626;28;20585;-80
2021/12/27 08:04:40;;;;;;;44.88;15.40;;;;;;;;;;4964653;28;20093;-80
2021/12/27 08:07:06;;;;;;;51.20;17.25;;;;;;;;;;4963263;28;20046;-81
2021/12/27 08:09:32;;;;;;;45.22;17.42;;;;;;;;;;4967583;28;20588;-80
2021/12/27 08:11:58;;;;;;;48.13;16.45;;;;;;;;;;4964121;28;20034;-80
2021/12/27 08:14:24;;;;;;;56.53;17.35;;;;;;;;;;4967292;28;20068;-81
2021/12/27 08:16:50;;;;;;;46.28;17.27;;;;;;;;;;4977931;28;20034;-80
2021/12/27 08:19:17;;;;;;;41.92;15.73;;;;;;;;;;4965115;28;20796;-80
2021/12/27 08:21:43;;;;;;;58.38;18.00;;;;;;;;;;4975409;28;20069;-81
2021/12/27 08:24:09;;;;;;;44.20;17.13;;;;;;;;;;4970120;28;20037;-81
2021/12/27 08:26:36;;;;;;;46.55;16.92;;;;;;;;;;4977393;28;20312;-80
2021/12/27 08:29:03;;;;;;;52.67;18.13;;;;;;;;;;4974527;28;20146;-80
2021/12/27 08:31:29;;;;;;;41.50;17.02;;;;;;;;;;4965143;28;20087;-80
2021/12/27 08:33:55;;;;;;;46.55;15.82;;;;;;;;;;4958098;28;20113;-80
2021/12/27 08:36:21;;;;;;;40.70;15.30;;;;;;;;;;4968327;28;20030;-80
2021/12/27 08:38:49;;;;;;;51.13;16.70;;;;;;;;;;4948047;28;20450;-80
2021/12/27 08:41:15;;;;;;;47.00;17.75;;;;;;;;;;4947919;28;20037;-80
2021/12/27 08:43:41;;;;;;;49.95;17.45;;;;;;;;;;4943075;28;20476;-80
2021/12/27 08:46:07;;;;;;;46.90;14.60;;;;;;;;;;4944706;28;20134;-80
2021/12/27 08:48:34;;;;;;;53.35;16.67;;;;;;;;;;4940121;28;21043;-80
2021/12/27 08:51:00;;;;;;;53.55;17.30;;;;;;;;;;4943654;28;20495;-80
2021/12/27 08:53:26;;;;;;;46.00;17.17;;;;;;;;;;4953515;28;20034;-80
2021/12/27 08:55:52;;;;;;;53.45;18.42;;;;;;;;;;4936538;28;20029;-80
2021/12/27 08:58:18;;;;;;;48.53;17.92;;;;;;;;;;4946691;28;20122;-81
2021/12/27 09:00:44;;;;;;;50.45;17.38;;;;;;;;;;4943426;28;20695;-80
2021/12/27 09:03:14;;;;;;;54.70;19.08;;;;;;;;;;4946034;28;20392;-80
2021/12/27 09:05:41;;;;;;;61.40;16.85;;;;;;;;;;4943895;28;20542;-80
2021/12/27 09:08:07;;;;;;;41.08;15.00;;;;;;;;;;4945271;28;20524;-80
2021/12/27 09:10:33;;;;;;;64.15;19.95;;;;;;;;;;4936386;28;20042;-80
2021/12/27 09:13:00;;;;;;;55.25;18.40;;;;;;;;;;4941902;28;20582;-81
2021/12/27 09:15:26;;;;;;;55.53;17.73;;;;;;;;;;4944547;28;20057;-80
2021/12/27 09:17:52;;;;;;;52.10;16.92;;;;;;;;;;4945139;28;20047;-80
2021/12/27 09:20:18;;;;;;;65.13;17.88;;;;;;;;;;4940704;28;20035;-79
2021/12/27 09:22:44;;;;;;;64.65;19.58;;;;;;;;;;4954074;28;20089;-80
2021/12/27 09:25:10;;;;;;;54.05;17.25;;;;;;;;;;4957882;28;20596;-80
2021/12/27 09:27:37;;;;;;;56.50;18.92;;;;;;;;;;4944715;28;20023;-80
2021/12/27 09:30:04;;;;;;;60.20;20.55;;;;;;;;;;4955810;28;20110;-80
2021/12/27 09:32:30;;;;;;;52.80;17.83;;;;;;;;;;4952962;28;20396;-82
2021/12/27 09:34:56;;;;;;;49.55;18.08;;;;;;;;;;4948635;28;20037;-80
2021/12/27 09:37:22;;;;;;;63.80;20.15;;;;;;;;;;4959845;28;20046;-80
2021/12/27 09:39:53;;;;;;;53.05;18.83;;;;;;;;;;4948089;28;20034;-80
2021/12/27 09:42:29;;;;;;;61.22;19.60;;;;;;;;;;4946011;28;20023;-79
2021/12/27 09:44:56;;;;;;;60.63;19.45;;;;;;;;;;4945352;28;20241;-81
2021/12/27 09:47:23;;;;;;;63.50;19.52;;;;;;;;;;4961218;28;20364;-80
2021/12/27 09:49:49;;;;;;;63.58;19.70;;;;;;;;;;4944261;28;20037;-80
2021/12/27 09:52:16;;;;;;;66.15;18.70;;;;;;;;;;4941072;28;20288;-80
2021/12/27 09:54:45;;;;;;;63.42;18.52;;;;;;;;;;4945679;28;20409;-80
2021/12/27 09:57:11;;;;;;;73.35;20.10;;;;;;;;;;4945267;28;20069;-81
2021/12/27 09:59:37;;;;;;;61.28;19.15;;;;;;;;;;4937307;28;20031;-81
2021/12/27 10:02:03;;;;;;;60.55;19.15;;;;;;;;;;4945783;28;20129;-79
2021/12/27 10:04:29;;;;;;;73.60;20.40;;;;;;;;;;4958030;28;20046;-80
2021/12/27 10:06:55;;;;;;;52.70;17.85;;;;;;;;;;4959221;28;20027;-80
2021/12/27 10:09:21;;;;;;;66.18;19.15;;;;;;;;;;4943912;28;20043;-80
2021/12/27 10:11:48;;;;;;;64.38;20.45;;;;;;;;;;4944615;28;20716;-79
2021/12/27 10:14:18;;;;;;;73.68;19.80;;;;;;;;;;4948813;28;20023;-79
2021/12/27 10:17:03;;;;;;;65.43;19.30;;;;;;;;;;4939026;28;20097;-80
2021/12/27 10:19:29;;;;;;;56.90;17.95;;;;;;;;;;4949097;28;20153;-79
2021/12/27 10:21:55;;;;;;;64.47;20.88;;;;;;;;;;4939101;28;20126;-80
2021/12/27 10:24:28;;;;;;;62.42;20.35;;;;;;;;;;4948139;28;20280;-79
2021/12/27 10:26:55;;;;;;;61.72;19.25;;;;;;;;;;4944383;28;20107;-80
2021/12/27 10:29:33;;;;;;;59.72;18.88;;;;;;;;;;4960448;28;20042;-80
2021/12/27 10:32:14;;;;;;;68.20;20.25;;;;;;;;;;4939107;28;20113;-80
2021/12/27 10:34:40;;;;;;;56.72;17.83;;;;;;;;;;4941979;28;20328;-80
2021/12/27 10:37:18;;;;;;;71.75;21.33;;;;;;;;;;4968433;28;20094;-81
2021/12/27 10:39:58;;;;;;;62.75;20.85;;;;;;;;;;4963859;28;20044;-80
2021/12/27 10:42:40;;;;;;;73.68;19.90;;;;;;;;;;4975620;28;20057;-79
2021/12/27 10:45:06;;;;;;;57.72;20.27;;;;;;;;;;4965156;28;20533;-80
2021/12/27 10:47:37;;;;;;;79.53;21.75;;;;;;;;;;4964277;28;20043;-79
2021/12/27 10:50:04;;;;;;;66.10;18.60;;;;;;;;;;4981548;28;20071;-79
2021/12/27 10:52:40;;;;;;;59.42;19.38;;;;;;;;;;4963352;28;20026;-79
2021/12/27 10:55:06;;;;;;;66.22;18.33;;;;;;;;;;4963175;28;20038;-80
2021/12/27 10:57:33;;;;;;;66.70;19.65;;;;;;;;;;4960909;28;20431;-79
2021/12/27 11:00:16;;;;;;;62.50;20.98;;;;;;;;;;4968407;28;20050;-80
2021/12/27 11:02:42;;;;;;;68.07;20.48;;;;;;;;;;4975618;28;20133;-79
2021/12/27 11:05:12;;;;;;;75.93;20.15;;;;;;;;;;4965039;28;20042;-79
2021/12/27 11:07:40;;;;;;;64.88;19.42;;;;;;;;;;4962104;28;20035;-79
2021/12/27 11:10:06;;;;;;;79.97;20.58;;;;;;;;;;4962688;28;20031;-79
2021/12/27 11:12:32;;;;;;;68.38;18.55;;;;;;;;;;4976835;28;20429;-79
2021/12/27 11:14:58;;;;;;;78.75;21.15;;;;;;;;;;4964197;28;20497;-79
2021/12/27 11:17:25;;;;;;;69.22;20.25;;;;;;;;;;4962608;28;20042;-79
2021/12/27 11:19:51;;;;;;;75.35;20.02;;;;;;;;;;4962582;28;20045;-79
2021/12/27 11:22:17;;;;;;;84.75;20.33;;;;;;;;;;4966703;28;20878;-79
2021/12/27 11:24:44;;;;;;;97.55;22.83;;;;;;;;;;4967558;28;20282;-79
2021/12/27 11:27:11;;;;;;;77.22;19.98;;;;;;;;;;4963047;28;20505;-79
2021/12/27 11:29:37;;;;;;;85.88;23.98;;;;;;;;;;4968301;28;20023;-79
2021/12/27 11:32:16;;;;;;;89.03;23.73;;;;;;;;;;4979261;28;20382;-80
2021/12/27 11:34:54;;;;;;;73.97;21.48;;;;;;;;;;4964250;28;20191;-79
2021/12/27 11:37:41;;;;;;;85.07;21.65;;;;;;;;;;4972479;28;20506;-79
2021/12/27 11:40:09;;;;;;;102.28;22.83;;;;;;;;;;4942770;28;20045;-80
2021/12/27 11:42:58;;;;;;;80.82;22.38;;;;;;;;;;4951734;28;20539;-79
2021/12/27 11:45:37;;;;;;;93.57;22.65;;;;;;;;;;4940958;28;20042;-79
2021/12/27 11:48:07;;;;;;;97.30;22.98;;;;;;;;;;4948624;28;20050;-79
2021/12/27 11:50:33;;;;;;;107.10;23.75;;;;;;;;;;4947204;28;20471;-79
2021/12/27 11:53:06;;;;;;;108.32;23.05;;;;;;;;;;4947180;28;20039;-80
2021/12/27 11:55:38;;;;;;;105.43;26.55;;;;;;;;;;4943979;28;20031;-79
2021/12/27 11:58:04;;;;;;;124.55;24.50;;;;;;;;;;4940925;28;20043;-79
2021/12/27 12:00:30;;;;;;;109.90;23.95;;;;;;;;;;4949650;28;20558;-80
2021/12/27 12:03:07;;;;;;;121.35;24.10;;;;;;;;;;4942397;28;20087;-81
2021/12/27 12:05:44;;;;;;;64.78;18.95;;;;;;;;;;4945567;28;20398;-80
2021/12/27 12:08:12;;;;;;;88.68;22.08;;;;;;;;;;4957921;28;20106;-80
2021/12/27 12:10:40;;;;;;;66.93;16.90;;;;;;;;;;4949071;28;20210;-80
2021/12/27 12:13:17;;;;;;;126.43;23.58;;;;;;;;;;4945271;28;20376;-79
2021/12/27 12:16:00;;;;;;;102.93;21.83;;;;;;;;;;4951339;28;20041;-81
2021/12/27 12:18:27;;;;;;;90.13;21.48;;;;;;;;;;4942163;28;20118;-79
2021/12/27 12:20:53;;;;;;;100.20;19.35;;;;;;;;;;4958834;28;20043;-80
2021/12/27 12:23:19;;;;;;;77.05;17.30;;;;;;;;;;4942758;28;20031;-79
2021/12/27 12:25:45;;;;;;;89.72;21.50;;;;;;;;;;4947548;28;20031;-79
2021/12/27 12:28:13;;;;;;;96.55;20.85;;;;;;;;;;4961095;28;20503;-79
2021/12/27 12:30:40;;;;;;;62.22;15.45;;;;;;;;;;4959775;28;20152;-79
2021/12/27 12:33:06;;;;;;;87.13;20.95;;;;;;;;;;4945574;28;20510;-79
2021/12/27 12:35:32;;;;;;;77.22;18.48;;;;;;;;;;4959537;28;20061;-79
2021/12/27 12:38:12;;;;;;;92.90;21.05;;;;;;;;;;4955489;28;20081;-79
2021/12/27 12:40:38;;;;;;;87.80;20.73;;;;;;;;;;4966082;28;20407;-79
2021/12/27 12:43:04;;;;;;;79.82;17.67;;;;;;;;;;4960252;28;20118;-79
2021/12/27 12:45:31;;;;;;;70.32;20.30;;;;;;;;;;4964006;28;20444;-79
2021/12/27 12:47:57;;;;;;;91.00;19.33;;;;;;;;;;4964714;28;20035;-81
2021/12/27 12:50:23;;;;;;;81.93;19.95;;;;;;;;;;4962593;28;20019;-79
2021/12/27 12:52:50;;;;;;;89.75;22.60;;;;;;;;;;4969329;28;20084;-79
2021/12/27 12:55:19;;;;;;;108.20;22.60;;;;;;;;;;4964226;28;20061;-79
2021/12/27 12:57:50;;;;;;;104.90;22.75;;;;;;;;;;4965900;28;20509;-79
2021/12/27 13:00:21;;;;;;;104.32;22.45;;;;;;;;;;4970879;28;20077;-79
2021/12/27 13:02:47;;;;;;;107.60;23.05;;;;;;;;;;4968014;28;20039;-79
2021/12/27 13:05:18;;;;;;;96.47;22.65;;;;;;;;;;4971474;28;20096;-79
2021/12/27 13:07:48;;;;;;;121.60;25.90;;;;;;;;;;4968472;28;20116;-79
2021/12/27 13:10:23;;;;;;;91.20;21.45;;;;;;;;;;4965535;28;20034;-79
2021/12/27 13:12:50;;;;;;;96.25;22.02;;;;;;;;;;4967688;28;20118;-79
2021/12/27 13:15:21;;;;;;;100.50;22.38;;;;;;;;;;4964028;28;20038;-79
2021/12/27 13:18:04;;;;;;;90.63;21.83;;;;;;;;;;4968871;28;20105;-79
2021/12/27 13:20:31;;;;;;;112.28;21.23;;;;;;;;;;4980505;28;20034;-80
2021/12/27 13:22:57;;;;;;;110.65;23.98;;;;;;;;;;4962919;28;20174;-79
2021/12/27 13:25:35;;;;;;;102.65;23.40;;;;;;;;;;4963655;28;20101;-79
2021/12/27 13:28:19;;;;;;;140.00;24.77;;;;;;;;;;4958300;28;20466;-79
2021/12/27 13:30:45;;;;;;;94.88;22.15;;;;;;;;;;4965221;28;20031;-79
2021/12/27 13:33:11;;;;;;;119.40;24.38;;;;;;;;;;4964707;28;20041;-79
2021/12/27 13:35:40;;;;;;;138.10;23.42;;;;;;;;;;4977732;28;20037;-79
2021/12/27 13:38:13;;;;;;;102.78;24.08;;;;;;;;;;4951669;28;20039;-79
2021/12/27 13:40:44;;;;;;;88.40;23.15;;;;;;;;;;4945753;28;20043;-79
2021/12/27 13:43:10;;;;;;;132.77;26.30;;;;;;;;;;4939498;28;20446;-79
2021/12/27 13:45:39;;;;;;;142.18;25.23;;;;;;;;;;4953739;28;20650;-79
2021/12/27 13:48:06;;;;;;;174.77;29.92;;;;;;;;;;4943044;28;20241;-79
2021/12/27 13:50:32;;;;;;;145.30;25.25;;;;;;;;;;4940163;28;20034;-79
2021/12/27 13:52:59;;;;;;;127.50;25.23;;;;;;;;;;4959757;28;20493;-80
2021/12/27 13:55:27;;;;;;;146.18;26.80;;;;;;;;;;4945522;28;20459;-80
2021/12/27 13:57:53;;;;;;;135.05;25.98;;;;;;;;;;4943967;28;20087;-79
2021/12/27 14:00:29;;;;;;;140.82;24.02;;;;;;;;;;4937530;28;20480;-79
2021/12/27 14:02:55;;;;;;;149.85;24.23;;;;;;;;;;4960137;28;20045;-80
2021/12/27 14:05:28;;;;;;;142.57;26.05;;;;;;;;;;4940886;28;20038;-79
2021/12/27 14:07:55;;;;;;;130.77;25.15;;;;;;;;;;4941299;28;20066;-79
2021/12/27 14:10:27;;;;;;;157.80;26.08;;;;;;;;;;4952388;28;20031;-80
2021/12/27 14:13:00;;;;;;;140.40;25.90;;;;;;;;;;4954440;28;20022;-79
2021/12/27 14:15:30;;;;;;;131.73;25.83;;;;;;;;;;4942678;28;20105;-81
2021/12/27 14:18:07;;;;;;;144.70;26.23;;;;;;;;;;4937052;28;20031;-79
2021/12/27 14:20:33;;;;;;;151.63;27.13;;;;;;;;;;4942159;28;20030;-79
2021/12/27 14:23:05;;;;;;;169.85;27.58;;;;;;;;;;4941841;28;20039;-81
2021/12/27 14:25:31;;;;;;;151.98;26.80;;;;;;;;;;4941405;28;20031;-79
2021/12/27 14:27:58;;;;;;;138.73;27.67;;;;;;;;;;4940686;28;20542;-80
2021/12/27 14:30:25;;;;;;;186.70;27.35;;;;;;;;;;4939377;28;20034;-79
2021/12/27 14:32:59;;;;;;;186.57;29.25;;;;;;;;;;4957929;28;20030;-81